Volgoneft-252 — UABX — position and weather

sailwx.info

Track history (hours):
 
Tides and Currents Weather Stations Pressure Air Temp Water Temp Dewpoint Dewpoint Depression Visibility Wind Speed Wind Dir Waves Ship Positions

Volgoneft-252

Last reported at 2018-Jun-06 16:39 UTC. Time now 2018-Jun-19 23:48 UTC.
Position N 45°26' E 036°44'.
Warning: this ship's position is 13 days out of date.

Length 133 m; draft 2.6 m.

Type: Tanker. MMSI: 273275000.

Date/timePositionNaut miles runAvg speedWind from/ knotsBaromVisibWave heightAir tempDewpointWater temp
2018-Jun-06 16:39N 45°26' E 036°44'1 7.8
2018-Jun-06 16:28N 45°25' E 036°43'4 7.8
2018-Jun-06 16:00N 45°22' E 036°40'4 7.3
2018-Jun-06 15:30N 45°20' E 036°36'6 7.4
2018-Jun-06 14:38N 45°16' E 036°29'2 6.2
2018-Jun-06 14:21N 45°15' E 036°29'2 5.6
2018-Jun-06 13:58N 45°13' E 036°30'2 0.4
2018-Jun-06 09:15N 45°11' E 036°31'4 0.2
2018-Jun-05 13:54N 45°07' E 036°30'3 7.0
2018-Jun-05 13:28N 45°10' E 036°28'4 7.5
2018-Jun-05 12:58N 45°14' E 036°28'3 6.7
2018-Jun-05 12:30N 45°17' E 036°28'3 5.9
2018-Jun-05 12:00N 45°19' E 036°32'3 6.6
2018-Jun-05 11:30N 45°20' E 036°36'3 6.2
2018-Jun-05 11:00N 45°22' E 036°40'3 5.9
2018-Jun-05 10:30N 45°25' E 036°41'1 2.8
2018-Jun-05 10:00N 45°26' E 036°41'1 2.7
2018-Jun-05 09:30N 45°27' E 036°40'1 2.3
2018-Jun-05 08:58N 45°29' E 036°40'0 0.0
2018-Jun-05 08:28N 45°29' E 036°40'0 0.0
2018-Jun-05 07:58N 45°29' E 036°40'0 0.0
2018-Jun-05 07:28N 45°29' E 036°40'0 0.1
2018-Jun-05 06:58N 45°28' E 036°40'0 0.0
2018-Jun-05 06:28N 45°28' E 036°40'0 0.0
2018-Jun-05 05:49N 45°28' E 036°40'0 0.0
2018-Jun-05 05:28N 45°28' E 036°40'0 0.0
2018-Jun-05 04:58N 45°28' E 036°40'0 0.0
2018-Jun-05 04:28N 45°28' E 036°40'0 0.1
2018-Jun-05 03:58N 45°29' E 036°40'0 0.1
2018-Jun-05 03:25N 45°29' E 036°39'0 0.1
2018-Jun-05 02:58N 45°28' E 036°39'0 0.0
2018-Jun-05 02:28N 45°28' E 036°39'0 0.1
2018-Jun-05 01:58N 45°28' E 036°39'0 0.1
2018-Jun-05 01:25N 45°28' E 036°39'0 0.0
2018-Jun-05 00:52N 45°28' E 036°40'0 0.0
2018-Jun-05 00:28N 45°28' E 036°40'0 0.0
2018-Jun-04 23:55N 45°28' E 036°40'0 0.0
2018-Jun-04 23:28N 45°28' E 036°40'0 0.0
2018-Jun-04 22:58N 45°28' E 036°40'0 0.1
2018-Jun-04 22:28N 45°28' E 036°40'0 0.0
2018-Jun-04 21:58N 45°28' E 036°40'0 0.1
2018-Jun-04 21:28N 45°28' E 036°40'0 0.1
2018-Jun-04 20:58N 45°28' E 036°40'0 0.1
2018-Jun-04 20:25N 45°29' E 036°40'0 0.1
2018-Jun-04 19:55N 45°29' E 036°40'0 0.0
2018-Jun-04 19:30N 45°29' E 036°40'3 5.7
2018-Jun-04 18:56N 45°31' E 036°43'  
Track history (hours):
 
Tides and Currents Weather Stations Pressure Air Temp Water Temp Dewpoint Dewpoint Depression Visibility Wind Speed Wind Dir Waves Ship Positions

Volgoneft-252

Last reported at 2018-Jun-06 16:39 UTC. Time now 2018-Jun-19 23:48 UTC.
Position N 45°26' E 036°44'.
Warning: this ship's position is 13 days out of date.

Length 133 m; draft 2.6 m.

Type: Tanker. MMSI: 273275000.

Date/timePositionNaut miles runAvg speedWind from/ knotsBaromVisibWave heightAir tempDewpointWater temp
2018-Jun-06 16:39N 45°26' E 036°44'1 7.8
2018-Jun-06 16:28N 45°25' E 036°43'4 7.8
2018-Jun-06 16:00N 45°22' E 036°40'4 7.3
2018-Jun-06 15:30N 45°20' E 036°36'6 7.4
2018-Jun-06 14:38N 45°16' E 036°29'2 6.2
2018-Jun-06 14:21N 45°15' E 036°29'2 5.6
2018-Jun-06 13:58N 45°13' E 036°30'2 0.4
2018-Jun-06 09:15N 45°11' E 036°31'4 0.2
2018-Jun-05 13:54N 45°07' E 036°30'3 7.0
2018-Jun-05 13:28N 45°10' E 036°28'4 7.5
2018-Jun-05 12:58N 45°14' E 036°28'3 6.7
2018-Jun-05 12:30N 45°17' E 036°28'3 5.9
2018-Jun-05 12:00N 45°19' E 036°32'3 6.6
2018-Jun-05 11:30N 45°20' E 036°36'3 6.2
2018-Jun-05 11:00N 45°22' E 036°40'3 5.9
2018-Jun-05 10:30N 45°25' E 036°41'1 2.8
2018-Jun-05 10:00N 45°26' E 036°41'1 2.7
2018-Jun-05 09:30N 45°27' E 036°40'1 2.3
2018-Jun-05 08:58N 45°29' E 036°40'0 0.0
2018-Jun-05 08:28N 45°29' E 036°40'0 0.0
2018-Jun-05 07:58N 45°29' E 036°40'0 0.0
2018-Jun-05 07:28N 45°29' E 036°40'0 0.1
2018-Jun-05 06:58N 45°28' E 036°40'0 0.0
2018-Jun-05 06:28N 45°28' E 036°40'0 0.0
2018-Jun-05 05:49N 45°28' E 036°40'0 0.0
2018-Jun-05 05:28N 45°28' E 036°40'0 0.0
2018-Jun-05 04:58N 45°28' E 036°40'0 0.0
2018-Jun-05 04:28N 45°28' E 036°40'0 0.1
2018-Jun-05 03:58N 45°29' E 036°40'0 0.1
2018-Jun-05 03:25N 45°29' E 036°39'0 0.1
2018-Jun-05 02:58N 45°28' E 036°39'0 0.0
2018-Jun-05 02:28N 45°28' E 036°39'0 0.1
2018-Jun-05 01:58N 45°28' E 036°39'0 0.1
2018-Jun-05 01:25N 45°28' E 036°39'0 0.0
2018-Jun-05 00:52N 45°28' E 036°40'0 0.0
2018-Jun-05 00:28N 45°28' E 036°40'0 0.0
2018-Jun-04 23:55N 45°28' E 036°40'0 0.0
2018-Jun-04 23:28N 45°28' E 036°40'0 0.0
2018-Jun-04 22:58N 45°28' E 036°40'0 0.1
2018-Jun-04 22:28N 45°28' E 036°40'0 0.0
2018-Jun-04 21:58N 45°28' E 036°40'0 0.1
2018-Jun-04 21:28N 45°28' E 036°40'0 0.1
2018-Jun-04 20:58N 45°28' E 036°40'0 0.1
2018-Jun-04 20:25N 45°29' E 036°40'0 0.1
2018-Jun-04 19:55N 45°29' E 036°40'0 0.0
2018-Jun-04 19:30N 45°29' E 036°40'3 5.7
2018-Jun-04 18:56N 45°31' E 036°43'  

Dump ship's entire track history